Time;durP1;ratioP1;P1;durP2;ratioP2;P2;SDS_P1;SDS_P2;PMS_P1;PMS_P2;Temp;Humidity;BMP_temperature;BMP_pressure;BME280_temperature;BME280_humidity;BME280_pressure;Samples;Min_cycle;Max_cycle;Signal;HPM_P1;HPM_P2
2021/03/11 00:01:50;;;;;;;11.68;7.20;;;;;;;8.18;55.56;100110.25;5056573;28;20032;-79
2021/03/11 00:04:15;;;;;;;11.65;7.63;;;;;;;8.19;56.48;100101.34;5054130;28;20036;-79
2021/03/11 00:06:40;;;;;;;11.73;7.15;;;;;;;8.09;56.79;100098.78;5044063;28;20124;-79
2021/03/11 00:09:06;;;;;;;11.63;7.35;;;;;;;8.10;58.72;100103.06;5047963;28;20025;-79
2021/03/11 00:11:31;;;;;;;11.95;6.88;;;;;;;7.99;58.62;100106.72;5052158;28;20056;-79
2021/03/11 00:13:56;;;;;;;12.57;6.95;;;;;;;7.87;60.24;100103.44;5040449;28;20075;-79
2021/03/11 00:16:22;;;;;;;13.05;6.38;;;;;;;7.73;61.67;100108.34;5050125;28;20107;-79
2021/03/11 00:18:47;;;;;;;10.75;6.55;;;;;;;7.63;62.92;100111.84;5039212;28;20037;-79
2021/03/11 00:21:12;;;;;;;12.20;7.40;;;;;;;7.40;65.27;100111.34;5058303;28;20071;-78
2021/03/11 00:23:38;;;;;;;9.55;6.13;;;;;;;7.40;64.32;100126.28;5049471;28;20040;-78
2021/03/11 00:26:03;;;;;;;11.55;6.53;;;;;;;7.28;65.33;100122.16;5053818;28;20025;-80
2021/03/11 00:28:28;;;;;;;10.32;6.57;;;;;;;7.08;66.86;100122.19;5054464;28;20029;-78
2021/03/11 00:30:54;;;;;;;11.27;7.20;;;;;;;7.14;66.88;100116.34;5036530;28;20041;-79
2021/03/11 00:33:19;;;;;;;10.88;6.85;;;;;;;7.07;66.85;100103.91;5048676;28;20133;-80
2021/03/11 00:35:45;;;;;;;12.27;7.28;;;;;;;7.05;66.63;100090.06;5042181;28;20040;-80
2021/03/11 00:38:10;;;;;;;12.05;7.50;;;;;;;7.04;67.33;100088.41;5055650;28;20048;-79
2021/03/11 00:40:36;;;;;;;14.23;7.70;;;;;;;7.04;67.24;100084.00;5047884;28;20037;-79
2021/03/11 00:43:01;;;;;;;13.25;7.55;;;;;;;6.94;67.48;100078.75;5055601;28;20116;-80
2021/03/11 00:45:27;;;;;;;14.30;8.05;;;;;;;6.95;67.53;100067.25;5053847;28;20513;-79
2021/03/11 00:47:52;;;;;;;13.15;7.32;;;;;;;6.85;68.08;100068.22;5043781;28;20079;-78
2021/03/11 00:50:22;;;;;;;12.13;7.55;;;;;;;6.85;67.81;100062.97;5042455;28;20094;-79
2021/03/11 00:52:48;;;;;;;15.40;7.78;;;;;;;6.74;67.96;100050.78;5056093;28;20040;-79
2021/03/11 00:55:16;;;;;;;13.00;7.68;;;;;;;6.78;67.82;100047.75;5047643;28;20033;-79
2021/03/11 00:57:41;;;;;;;11.43;6.97;;;;;;;6.77;68.10;100038.22;5034625;28;20045;-78
2021/03/11 01:00:12;;;;;;;12.52;7.75;;;;;;;6.80;67.95;100023.97;5037436;28;20120;-79
2021/03/11 01:02:38;;;;;;;12.20;7.30;;;;;;;6.84;67.98;100022.72;5050937;28;20031;-79
2021/03/11 01:05:05;;;;;;;13.13;7.28;;;;;;;6.94;67.35;100014.84;5037106;28;20045;-79
2021/03/11 01:07:30;;;;;;;11.10;7.13;;;;;;;6.98;67.44;100010.94;5035282;28;20478;-78
2021/03/11 01:09:55;;;;;;;13.40;7.40;;;;;;;7.07;66.66;99999.56;5049187;28;20097;-78
2021/03/11 01:12:21;;;;;;;13.45;7.68;;;;;;;7.10;66.81;99996.66;5048182;28;20033;-79
2021/03/11 01:14:46;;;;;;;13.02;7.70;;;;;;;7.17;66.15;99992.47;5044597;28;20037;-79
2021/03/11 01:17:11;;;;;;;12.23;7.35;;;;;;;7.22;66.19;99978.91;5034757;28;20037;-79
2021/03/11 01:19:38;;;;;;;12.05;7.78;;;;;;;7.21;66.25;99964.94;5052891;28;20138;-78
2021/03/11 01:22:03;;;;;;;12.65;7.25;;;;;;;7.25;65.72;99957.59;5045649;28;20029;-78
2021/03/11 01:24:30;;;;;;;12.73;7.60;;;;;;;7.31;65.21;99945.66;5045577;28;20564;-78
2021/03/11 01:26:56;;;;;;;12.38;7.30;;;;;;;7.41;64.67;99943.81;5051938;28;20078;-79
2021/03/11 01:29:21;;;;;;;10.27;6.45;;;;;;;7.43;64.43;99933.97;5054324;28;20032;-79
2021/03/11 01:31:46;;;;;;;11.77;7.70;;;;;;;7.47;64.05;99924.00;5050591;28;20025;-79
2021/03/11 01:34:12;;;;;;;11.68;6.78;;;;;;;7.51;63.71;99925.34;5052313;28;20037;-79
2021/03/11 01:36:38;;;;;;;13.48;7.30;;;;;;;7.60;62.94;99922.69;5045809;28;20037;-79
2021/03/11 01:39:03;;;;;;;10.30;7.00;;;;;;;7.69;61.97;99912.25;5047326;28;20095;-79
2021/03/11 01:41:29;;;;;;;12.20;6.95;;;;;;;7.79;60.97;99903.28;5035171;28;20113;-79
2021/03/11 01:43:55;;;;;;;10.75;7.13;;;;;;;7.85;60.38;99888.72;5042334;28;20034;-78
2021/03/11 01:46:24;;;;;;;12.20;6.65;;;;;;;7.90;60.26;99894.34;5045788;28;20506;-79
2021/03/11 01:48:50;;;;;;;10.77;6.38;;;;;;;7.90;59.79;99877.75;5052605;28;20033;-79
2021/03/11 01:51:17;;;;;;;11.77;7.05;;;;;;;8.02;58.95;99866.00;5049671;28;20036;-79
2021/03/11 01:53:43;;;;;;;10.35;6.32;;;;;;;8.05;58.66;99863.06;5039838;28;20516;-79
2021/03/11 01:56:09;;;;;;;8.77;5.75;;;;;;;8.11;58.17;99851.09;5047404;28;20034;-80
2021/03/11 01:58:34;;;;;;;8.73;5.78;;;;;;;8.19;57.31;99853.78;5037005;28;20104;-79
2021/03/11 02:01:00;;;;;;;11.02;6.90;;;;;;;8.32;56.75;99848.97;5048951;28;20077;-78
2021/03/11 02:03:25;;;;;;;12.23;6.50;;;;;;;8.48;55.58;99840.34;5049386;28;20040;-78
2021/03/11 02:05:51;;;;;;;11.13;6.38;;;;;;;8.40;56.89;99837.69;5048583;28;20033;-79
2021/03/11 02:08:16;;;;;;;11.55;6.40;;;;;;;8.41;56.59;99836.69;5048527;28;20095;-79
2021/03/11 02:10:43;;;;;;;9.82;6.00;;;;;;;8.34;57.40;99828.53;5050805;28;20044;-79
2021/03/11 02:13:20;;;;;;;11.80;6.65;;;;;;;8.31;58.16;99826.22;5038122;28;20368;-79
2021/03/11 02:16:04;;;;;;;10.05;6.50;;;;;;;8.21;58.44;99813.16;5049879;28;20171;-78
2021/03/11 02:18:42;;;;;;;10.75;6.28;;;;;;;8.19;58.38;99803.75;5040667;28;20582;-78
2021/03/11 02:21:17;;;;;;;9.25;6.00;;;;;;;8.25;57.63;99811.88;5037250;28;20042;-78
2021/03/11 02:24:01;;;;;;;11.40;5.82;;;;;;;8.19;58.59;99795.84;5045944;28;20026;-79
2021/03/11 02:26:45;;;;;;;9.90;5.78;;;;;;;8.22;58.18;99785.84;5036677;28;20033;-80
2021/03/11 02:29:15;;;;;;;11.52;6.07;;;;;;;8.33;57.48;99783.94;5046650;28;20246;-79
2021/03/11 02:31:43;;;;;;;9.77;5.65;;;;;;;8.37;57.03;99780.84;5042853;28;20065;-79
2021/03/11 02:34:22;;;;;;;7.35;5.05;;;;;;;8.41;56.72;99781.38;5044084;28;20457;-79
2021/03/11 02:36:51;;;;;;;8.40;5.82;;;;;;;8.42;56.71;99775.94;5045296;28;20033;-80
2021/03/11 02:39:20;;;;;;;12.68;5.60;;;;;;;8.47;56.17;99763.13;5039438;28;20097;-79
2021/03/11 02:41:46;;;;;;;9.48;5.38;;;;;;;8.56;55.88;99755.28;5035197;28;20069;-79
2021/03/11 02:44:13;;;;;;;8.68;5.25;;;;;;;8.54;56.38;99751.97;5051281;28;20246;-80
2021/03/11 02:46:42;;;;;;;9.40;4.88;;;;;;;8.49;56.44;99740.09;5046784;28;20036;-80
2021/03/11 02:49:08;;;;;;;8.10;5.25;;;;;;;8.54;56.09;99736.16;5039230;28;20029;-79
2021/03/11 02:51:35;;;;;;;7.60;4.80;;;;;;;8.56;55.70;99726.28;5057115;28;20037;-78
2021/03/11 02:54:01;;;;;;;9.48;5.50;;;;;;;8.50;56.16;99731.19;5046711;28;20051;-79
2021/03/11 02:56:27;;;;;;;9.45;4.35;;;;;;;8.65;54.97;99733.22;5058356;28;20128;-80
2021/03/11 02:58:54;;;;;;;7.50;4.50;;;;;;;8.63;55.62;99722.03;5051994;28;20083;-79
2021/03/11 03:01:21;;;;;;;8.57;4.97;;;;;;;8.61;55.70;99722.19;5060001;28;20033;-80
2021/03/11 03:03:48;;;;;;;8.93;4.93;;;;;;;8.65;55.46;99720.03;5053916;28;20034;-80
2021/03/11 03:06:15;;;;;;;11.25;4.90;;;;;;;8.78;54.02;99704.63;5056322;28;20029;-78
2021/03/11 03:08:45;;;;;;;7.75;4.88;;;;;;;8.76;54.89;99713.69;5043444;28;20099;-80
2021/03/11 03:11:12;;;;;;;8.00;4.95;;;;;;;8.78;54.27;99715.16;5036933;28;20266;-79
2021/03/11 03:13:41;;;;;;;6.95;4.32;;;;;;;8.76;54.95;99708.41;5052122;28;20044;-79
2021/03/11 03:16:07;;;;;;;7.35;4.85;;;;;;;8.88;54.44;99707.13;5042438;28;20030;-79
2021/03/11 03:18:34;;;;;;;8.27;4.90;;;;;;;8.85;54.34;99718.81;5047373;28;20037;-78
2021/03/11 03:21:05;;;;;;;8.57;4.72;;;;;;;8.88;54.44;99715.03;5055735;28;20055;-79
2021/03/11 03:23:31;;;;;;;8.48;4.70;;;;;;;8.88;54.31;99707.94;5047873;28;20041;-79
2021/03/11 03:25:56;;;;;;;7.57;5.10;;;;;;;8.88;54.35;99696.56;5044106;28;20026;-78
2021/03/11 03:28:21;;;;;;;7.47;4.90;;;;;;;8.88;55.12;99699.19;5048972;28;20048;-79
2021/03/11 03:30:47;;;;;;;7.80;5.20;;;;;;;8.89;54.88;99685.03;5054303;28;20030;-79
2021/03/11 03:33:12;;;;;;;7.47;4.53;;;;;;;8.80;55.28;99684.19;5045066;28;20037;-79
2021/03/11 03:35:38;;;;;;;10.32;4.90;;;;;;;8.91;55.34;99701.50;5048891;28;20037;-80
2021/03/11 03:38:04;;;;;;;10.02;5.60;;;;;;;8.87;55.61;99679.94;5046314;28;20052;-79
2021/03/11 03:40:29;;;;;;;9.35;4.88;;;;;;;8.84;56.22;99676.78;5054772;28;20041;-80
2021/03/11 03:43:10;;;;;;;10.63;5.60;;;;;;;8.75;57.09;99683.84;5055107;28;20029;-78
2021/03/11 03:45:39;;;;;;;9.00;4.90;;;;;;;8.77;57.13;99674.00;5053156;28;20612;-78
2021/03/11 03:48:07;;;;;;;8.15;5.10;;;;;;;8.71;57.56;99675.44;5057819;28;20029;-80
2021/03/11 03:50:33;;;;;;;10.20;6.18;;;;;;;8.82;57.65;99678.75;5050367;28;20029;-79
2021/03/11 03:53:04;;;;;;;9.20;5.45;;;;;;;8.77;57.65;99684.53;5052979;28;20033;-79
2021/03/11 03:55:30;;;;;;;11.38;6.10;;;;;;;8.84;57.53;99689.97;5058623;28;20022;-80
2021/03/11 03:57:57;;;;;;;10.18;5.53;;;;;;;8.80;57.94;99681.56;5070805;28;20047;-80
2021/03/11 04:00:23;;;;;;;8.85;5.82;;;;;;;8.80;58.16;99683.38;5071095;28;20028;-79
2021/03/11 04:02:54;;;;;;;8.82;5.28;;;;;;;8.78;58.43;99699.34;5076386;28;20025;-81
2021/03/11 04:05:24;;;;;;;10.13;5.65;;;;;;;8.81;58.52;99692.94;5066306;28;20390;-79
2021/03/11 04:07:52;;;;;;;10.07;5.97;;;;;;;8.77;59.18;99695.06;5051649;28;20021;-78
2021/03/11 04:10:17;;;;;;;9.73;5.78;;;;;;;8.81;59.75;99690.28;5049085;28;20040;-80
2021/03/11 04:12:43;;;;;;;10.80;6.18;;;;;;;8.85;59.92;99670.53;5056851;28;20494;-80
2021/03/11 04:15:10;;;;;;;10.15;6.10;;;;;;;8.82;61.40;99678.75;5048144;28;20041;-79
2021/03/11 04:17:36;;;;;;;9.20;5.78;;;;;;;8.95;61.04;99679.13;5044226;28;20033;-79
2021/03/11 04:20:05;;;;;;;9.15;5.75;;;;;;;8.98;61.62;99677.97;5048234;28;20172;-79
2021/03/11 04:22:31;;;;;;;10.88;6.45;;;;;;;9.02;61.59;99672.22;5046447;28;20533;-78
2021/03/11 04:24:57;;;;;;;7.90;5.05;;;;;;;9.00;61.83;99683.91;5047565;28;20029;-79
2021/03/11 04:27:23;;;;;;;10.80;5.72;;;;;;;9.05;61.85;99671.88;5046413;28;20472;-78
2021/03/11 04:29:51;;;;;;;10.70;5.93;;;;;;;9.06;61.67;99667.44;5041173;28;20445;-78
2021/03/11 04:32:17;;;;;;;9.63;6.18;;;;;;;9.11;61.44;99670.41;5051494;28;20114;-79
2021/03/11 04:34:42;;;;;;;9.15;5.40;;;;;;;9.09;61.42;99667.13;5043372;28;20116;-79
2021/03/11 04:37:08;;;;;;;8.55;6.05;;;;;;;9.19;61.08;99665.13;5041980;28;20056;-79
2021/03/11 04:39:34;;;;;;;9.88;5.68;;;;;;;9.21;60.83;99670.25;5047657;28;20397;-79
2021/03/11 04:42:01;;;;;;;10.15;5.82;;;;;;;9.09;61.52;99661.84;5040847;28;20458;-78
2021/03/11 04:44:27;;;;;;;9.27;6.00;;;;;;;9.20;60.74;99660.69;5050944;28;20094;-80
2021/03/11 04:46:54;;;;;;;9.00;6.03;;;;;;;9.20;60.64;99663.31;5036738;28;20033;-79
2021/03/11 04:49:21;;;;;;;10.77;6.35;;;;;;;9.21;60.73;99659.72;5053622;28;20025;-79
2021/03/11 04:51:47;;;;;;;9.02;6.38;;;;;;;9.19;60.78;99651.13;5053483;28;20037;-78
2021/03/11 04:54:13;;;;;;;9.75;5.80;;;;;;;9.14;60.92;99654.25;5049736;28;20045;-79
2021/03/11 04:56:40;;;;;;;9.02;5.75;;;;;;;9.12;60.99;99643.84;5049578;28;20033;-78
2021/03/11 04:59:06;;;;;;;9.40;6.15;;;;;;;9.06;61.32;99644.53;5054617;28;20056;-78
2021/03/11 05:01:39;;;;;;;8.90;5.82;;;;;;;9.00;61.59;99647.00;5041030;28;20037;-79
2021/03/11 05:04:06;;;;;;;10.70;5.97;;;;;;;8.98;61.74;99633.13;5035054;28;20040;-78
2021/03/11 05:06:31;;;;;;;10.40;5.65;;;;;;;8.93;61.73;99633.63;5049320;28;20475;-78
2021/03/11 05:08:56;;;;;;;9.73;6.00;;;;;;;8.96;61.97;99635.09;5049635;28;20079;-79
2021/03/11 05:11:22;;;;;;;9.45;5.45;;;;;;;8.98;61.84;99622.59;5046146;28;20430;-78
2021/03/11 05:13:47;;;;;;;9.13;5.88;;;;;;;9.01;62.25;99614.34;5043561;28;20382;-79
2021/03/11 05:16:12;;;;;;;8.77;5.63;;;;;;;9.03;62.23;99620.28;5040878;28;20037;-79
2021/03/11 05:18:38;;;;;;;11.25;5.90;;;;;;;9.03;62.35;99626.38;5044097;28;20021;-78
2021/03/11 05:21:04;;;;;;;9.88;5.80;;;;;;;9.00;62.48;99618.81;5047468;28;20057;-81
2021/03/11 05:23:29;;;;;;;11.20;5.82;;;;;;;9.02;62.53;99626.56;5045522;28;20040;-79
2021/03/11 05:25:55;;;;;;;9.55;5.20;;;;;;;9.01;62.57;99623.09;5053686;28;20398;-80
2021/03/11 05:28:23;;;;;;;10.32;5.32;;;;;;;8.96;62.75;99604.28;5038989;28;20038;-78
2021/03/11 05:30:48;;;;;;;8.13;5.53;;;;;;;8.98;63.35;99606.78;5039106;28;20395;-78
2021/03/11 05:33:14;;;;;;;10.65;5.35;;;;;;;9.08;62.79;99589.81;5050572;28;20033;-78
2021/03/11 05:35:39;;;;;;;8.85;5.10;;;;;;;9.23;62.10;99613.72;5045226;28;20033;-78
2021/03/11 05:38:05;;;;;;;9.40;5.25;;;;;;;9.14;62.50;99593.59;5041875;28;20104;-78
2021/03/11 05:40:31;;;;;;;9.73;4.97;;;;;;;9.16;62.72;99588.97;5041528;28;20037;-79
2021/03/11 05:42:59;;;;;;;9.02;5.28;;;;;;;9.19;62.86;99586.00;5053537;28;20402;-78
2021/03/11 05:45:26;;;;;;;9.32;4.90;;;;;;;9.12;63.22;99577.09;5045562;28;20025;-79
2021/03/11 05:47:52;;;;;;;7.90;4.57;;;;;;;9.11;63.32;99565.75;5047789;28;20083;-78
2021/03/11 05:50:17;;;;;;;8.82;4.70;;;;;;;9.28;62.70;99571.81;5050238;28;20033;-78
2021/03/11 05:52:44;;;;;;;7.72;4.60;;;;;;;9.23;62.93;99568.88;5048439;28;20036;-79
2021/03/11 05:55:09;;;;;;;7.72;4.78;;;;;;;9.32;62.69;99562.59;5044652;28;20048;-78
2021/03/11 05:57:41;;;;;;;8.07;4.35;;;;;;;9.29;63.13;99562.09;5044496;28;20474;-79
2021/03/11 06:00:12;;;;;;;8.55;4.75;;;;;;;9.21;63.54;99559.47;5043823;28;20438;-79
2021/03/11 06:02:39;;;;;;;7.88;4.43;;;;;;;9.31;63.19;99554.84;5052756;28;20045;-78
2021/03/11 06:05:05;;;;;;;7.72;4.88;;;;;;;9.42;63.34;99556.31;5048344;28;20032;-81
2021/03/11 06:07:30;;;;;;;6.93;4.25;;;;;;;9.39;63.46;99556.63;5042880;28;20033;-78
2021/03/11 06:10:01;;;;;;;6.20;4.05;;;;;;;9.25;64.15;99552.88;5046145;28;20030;-78
2021/03/11 06:12:28;;;;;;;7.15;4.22;;;;;;;9.33;64.19;99545.75;5041247;28;20553;-79
2021/03/11 06:15:02;;;;;;;5.70;3.95;;;;;;;9.28;64.70;99561.28;5052883;28;20518;-80
2021/03/11 06:17:31;;;;;;;6.53;4.05;;;;;;;9.43;64.13;99556.13;5054563;28;20029;-79
2021/03/11 06:19:58;;;;;;;7.72;4.20;;;;;;;9.39;64.39;99552.19;5052128;28;20037;-78
2021/03/11 06:22:24;;;;;;;7.07;4.20;;;;;;;9.42;64.61;99551.84;5037941;28;20057;-78
2021/03/11 06:24:49;;;;;;;7.60;3.90;;;;;;;9.41;65.06;99552.00;5054316;28;20035;-79
2021/03/11 06:27:14;;;;;;;7.30;3.85;;;;;;;9.40;65.41;99563.56;5055644;28;20083;-79
2021/03/11 06:29:40;;;;;;;6.57;3.97;;;;;;;9.42;64.64;99565.03;5057769;28;20041;-79
2021/03/11 06:32:08;;;;;;;6.88;3.63;;;;;;;9.41;64.80;99560.75;5053853;28;20028;-78
2021/03/11 06:34:36;;;;;;;6.68;3.65;;;;;;;9.55;64.26;99565.31;5042517;28;20030;-78
2021/03/11 06:37:01;;;;;;;6.55;3.97;;;;;;;9.47;64.67;99561.91;5038861;28;20033;-78
2021/03/11 06:39:29;;;;;;;7.97;3.97;;;;;;;9.57;64.25;99560.72;5040309;28;20037;-79
2021/03/11 06:41:55;;;;;;;5.15;3.60;;;;;;;9.53;64.81;99569.97;5057626;28;20179;-79
2021/03/11 06:44:43;;;;;;;7.75;3.45;;;;;;;9.54;64.83;99557.59;5056094;28;20036;-80
2021/03/11 06:47:09;;;;;;;6.10;3.72;;;;;;;9.56;64.46;99569.63;5054290;28;20033;-79
2021/03/11 06:49:35;;;;;;;6.45;4.00;;;;;;;9.46;64.96;99560.25;5046339;28;20037;-79
2021/03/11 06:52:07;;;;;;;7.47;3.90;;;;;;;9.59;64.44;99552.63;5036059;28;20038;-79
2021/03/11 06:54:49;;;;;;;;;;;;;;;9.81;63.29;99560.81;5047678;28;20037;-79
2021/03/11 06:57:27;;;;;;;6.47;3.40;;;;;;;9.57;64.23;99560.72;5055935;28;19920;-78
2021/03/11 06:59:53;;;;;;;7.13;3.85;;;;;;;9.67;63.90;99557.06;5046911;28;20529;-78
2021/03/11 07:02:21;;;;;;;7.18;4.10;;;;;;;9.68;63.59;99554.25;5056581;28;20033;-78
2021/03/11 07:04:46;;;;;;;5.40;3.78;;;;;;;9.71;63.48;99556.56;5055143;28;20087;-79
2021/03/11 07:07:19;;;;;;;6.60;3.80;;;;;;;9.77;63.56;99560.31;5047790;28;20068;-80
2021/03/11 07:09:44;;;;;;;10.35;3.90;;;;;;;9.85;63.06;99564.78;5050287;28;20041;-79
2021/03/11 07:12:10;;;;;;;5.40;3.45;;;;;;;9.75;63.94;99572.88;5054844;28;20071;-79
2021/03/11 07:14:35;;;;;;;4.63;3.15;;;;;;;9.84;63.86;99577.13;5053145;28;20036;-79
2021/03/11 07:17:19;;;;;;;6.00;3.20;;;;;;;9.82;64.37;99592.34;5040101;28;20064;-79
2021/03/11 07:20:08;;;;;;;7.45;3.45;;;;;;;9.87;64.51;99578.63;5053828;28;20433;-78
2021/03/11 07:22:34;;;;;;;6.40;3.55;;;;;;;9.88;65.40;99583.72;5036915;28;20403;-80
2021/03/11 07:24:59;;;;;;;5.88;3.20;;;;;;;9.95;65.25;99563.56;5050324;28;20026;-79
2021/03/11 07:27:37;;;;;;;5.72;3.50;;;;;;;9.99;65.93;99556.13;5050307;28;20112;-78
2021/03/11 07:30:05;;;;;;;5.95;3.28;;;;;;;9.90;66.50;99544.78;5037145;28;20116;-80
2021/03/11 07:32:33;;;;;;;7.60;3.30;;;;;;;10.07;65.79;99555.25;5041413;28;20044;-79
2021/03/11 07:34:59;;;;;;;4.78;3.00;;;;;;;9.98;66.52;99551.81;5047004;28;20485;-79
2021/03/11 07:37:26;;;;;;;5.50;3.17;;;;;;;9.93;66.52;99551.53;5051944;28;20039;-79
2021/03/11 07:39:56;;;;;;;5.43;2.90;;;;;;;10.07;65.69;99540.22;5052872;28;20037;-78
2021/03/11 07:42:22;;;;;;;6.43;3.03;;;;;;;10.10;65.65;99541.69;5044360;28;20107;-79
2021/03/11 07:44:48;;;;;;;5.30;2.95;;;;;;;10.13;65.31;99544.84;5047221;28;20040;-78
2021/03/11 07:47:13;;;;;;;5.40;3.05;;;;;;;10.15;65.57;99553.41;5054333;28;20037;-79
2021/03/11 07:49:42;;;;;;;6.40;2.92;;;;;;;10.14;65.71;99540.38;5046582;28;20372;-79
2021/03/11 07:52:07;;;;;;;5.82;3.20;;;;;;;10.18;65.80;99553.06;5046944;28;20284;-78
2021/03/11 07:54:34;;;;;;;5.20;3.08;;;;;;;10.26;65.29;99554.84;5045877;28;20025;-79
2021/03/11 07:56:59;;;;;;;6.07;2.80;;;;;;;10.20;65.36;99542.31;5044205;28;20041;-79
2021/03/11 07:59:25;;;;;;;6.38;3.08;;;;;;;10.30;65.18;99536.84;5055142;28;20033;-79
2021/03/11 08:01:54;;;;;;;6.45;2.90;;;;;;;10.24;65.48;99527.75;5052241;28;20059;-79
2021/03/11 08:04:21;;;;;;;4.90;2.70;;;;;;;10.37;65.09;99529.88;5044662;28;20061;-81
2021/03/11 08:06:47;;;;;;;4.63;2.83;;;;;;;10.34;65.34;99535.50;5032168;28;20084;-80
2021/03/11 08:09:13;;;;;;;6.35;3.17;;;;;;;10.27;65.26;99527.41;5032308;28;20030;-79
2021/03/11 08:11:40;;;;;;;5.25;3.10;;;;;;;10.28;65.36;99533.53;5048994;28;20041;-78
2021/03/11 08:14:16;;;;;;;3.95;2.90;;;;;;;10.32;65.36;99534.84;5057649;28;20024;-79
2021/03/11 08:16:41;;;;;;;6.95;2.70;;;;;;;10.35;65.02;99524.75;5056538;28;20044;-77
2021/03/11 08:19:06;;;;;;;4.40;3.28;;;;;;;10.36;65.16;99525.56;5056995;28;20170;-80
2021/03/11 08:21:34;;;;;;;4.78;3.15;;;;;;;10.51;64.96;99520.34;5054717;28;20044;-80
2021/03/11 08:24:00;;;;;;;8.02;3.30;;;;;;;10.40;65.54;99527.69;5056303;28;20067;-78
2021/03/11 08:26:37;;;;;;;4.28;2.50;;;;;;;10.37;65.93;99511.38;5051982;28;20644;-79
2021/03/11 08:29:15;;;;;;;4.80;2.80;;;;;;;10.40;66.17;99519.75;5056386;28;20486;-77
2021/03/11 08:31:41;;;;;;;4.57;2.70;;;;;;;10.43;66.24;99509.84;5043133;28;20095;-79
2021/03/11 08:34:07;;;;;;;4.40;2.90;;;;;;;10.47;66.31;99519.06;5048700;28;20029;-77
2021/03/11 08:36:36;;;;;;;4.82;2.70;;;;;;;10.41;66.96;99505.53;5047178;28;20040;-77
2021/03/11 08:39:04;;;;;;;5.45;3.08;;;;;;;10.53;67.48;99521.00;5053534;28;20033;-77
2021/03/11 08:41:33;;;;;;;7.70;3.00;;;;;;;10.51;68.18;99523.00;5047072;28;20037;-78
2021/03/11 08:44:01;;;;;;;4.70;2.50;;;;;;;10.63;67.64;99518.97;5052624;28;20051;-77
2021/03/11 08:46:47;;;;;;;5.50;2.88;;;;;;;10.52;68.52;99511.44;5046906;28;20084;-79
2021/03/11 08:49:37;;;;;;;8.25;2.70;;;;;;;10.80;68.36;99503.78;5046408;28;20086;-79
2021/03/11 08:52:02;;;;;;;5.25;2.80;;;;;;;10.77;68.49;99504.13;5039020;28;20088;-77
2021/03/11 08:54:28;;;;;;;7.53;2.95;;;;;;;10.92;68.04;99498.88;5043340;28;20498;-77
2021/03/11 08:56:53;;;;;;;4.70;2.58;;;;;;;10.96;67.67;99495.69;5054343;28;20040;-78
2021/03/11 08:59:18;;;;;;;5.15;2.70;;;;;;;10.96;67.83;99492.22;5050526;28;20033;-78
2021/03/11 09:01:46;;;;;;;3.95;2.50;;;;;;;10.86;68.02;99491.66;5041972;28;20067;-78
2021/03/11 09:04:17;;;;;;;3.38;2.50;;;;;;;10.79;68.89;99484.44;5042628;28;20052;-80
2021/03/11 09:07:09;;;;;;;3.85;2.47;;;;;;;10.97;68.40;99484.13;5049796;28;20098;-78
2021/03/11 09:09:40;;;;;;;6.57;2.83;;;;;;;11.00;67.91;99467.88;5052778;28;20039;-78
2021/03/11 09:12:17;;;;;;;4.93;2.63;;;;;;;10.90;69.00;99466.50;5045092;28;20037;-81
2021/03/11 09:14:54;;;;;;;4.07;2.42;;;;;;;10.86;69.22;99457.28;5061443;28;20087;-79
2021/03/11 09:17:25;;;;;;;3.88;2.60;;;;;;;10.66;70.03;99460.44;5052728;28;20041;-78
2021/03/11 09:20:10;;;;;;;4.13;2.78;;;;;;;10.73;70.01;99455.25;5038121;28;20068;-79
2021/03/11 09:22:36;;;;;;;4.90;2.75;;;;;;;10.54;70.27;99440.72;5052353;28;20029;-78
2021/03/11 09:25:07;;;;;;;4.57;3.10;;;;;;;10.46;70.86;99448.69;5042685;28;20422;-77
2021/03/11 09:27:34;;;;;;;6.18;2.70;;;;;;;10.46;71.22;99446.06;5041895;28;20037;-78
2021/03/11 09:30:04;;;;;;;4.70;2.90;;;;;;;10.39;71.41;99444.13;5053868;28;20504;-78
2021/03/11 09:32:31;;;;;;;5.85;2.90;;;;;;;10.40;71.71;99429.91;5042213;28;20025;-78
2021/03/11 09:35:02;;;;;;;5.05;3.10;;;;;;;10.30;72.07;99450.47;5038577;28;20033;-79
2021/03/11 09:37:52;;;;;;;8.15;3.25;;;;;;;10.32;72.12;99443.19;5046240;28;20033;-80
2021/03/11 09:40:25;;;;;;;5.03;2.80;;;;;;;10.24;72.57;99445.03;5046520;28;20037;-79
2021/03/11 09:43:15;;;;;;;6.43;2.78;;;;;;;10.17;73.27;99434.34;5048175;28;20033;-78
2021/03/11 09:45:46;;;;;;;5.03;2.75;;;;;;;10.07;73.92;99436.41;5043202;28;20041;-79
2021/03/11 09:48:33;;;;;;;4.38;2.90;;;;;;;10.08;74.73;99440.69;5047810;28;20049;-79
2021/03/11 09:51:04;;;;;;;4.45;3.17;;;;;;;10.07;75.13;99431.13;5050240;28;20127;-79
2021/03/11 09:53:37;;;;;;;;;;;;;;;10.00;76.24;99431.81;5055368;28;20111;-79
2021/03/11 09:56:04;;;;;;;4.68;3.10;;;;;;;9.68;78.14;99430.19;5046211;28;19980;-77
2021/03/11 09:58:29;;;;;;;4.38;3.08;;;;;;;9.81;78.44;99424.34;5052678;28;20056;-80
2021/03/11 10:00:55;;;;;;;6.70;3.30;;;;;;;9.70;79.03;99409.72;5055249;28;20090;-78
2021/03/11 10:03:28;;;;;;;6.43;3.30;;;;;;;9.71;79.73;99398.16;5046879;28;20049;-78
2021/03/11 10:05:59;;;;;;;6.68;2.92;;;;;;;9.63;80.52;99410.56;5046573;28;20090;-78
2021/03/11 10:08:40;;;;;;;4.38;3.15;;;;;;;9.59;81.39;99404.03;5045677;28;20033;-79
2021/03/11 10:11:15;;;;;;;5.28;3.80;;;;;;;9.73;81.35;99398.81;5048163;28;20052;-79
2021/03/11 10:13:48;;;;;;;8.32;3.97;;;;;;;9.73;81.34;99388.25;5052844;28;20037;-79
2021/03/11 10:16:19;;;;;;;5.63;3.80;;;;;;;9.76;81.21;99376.53;5050638;28;20095;-80
2021/03/11 10:19:05;;;;;;;6.28;3.97;;;;;;;9.76;82.09;99337.75;5052869;28;20033;-79
2021/03/11 10:21:32;;;;;;;6.43;3.38;;;;;;;9.92;81.68;99312.22;5048333;28;20045;-80
2021/03/11 10:23:58;;;;;;;5.07;3.20;;;;;;;9.79;82.18;99336.56;5050635;28;20065;-78
2021/03/11 10:26:26;;;;;;;8.20;3.50;;;;;;;9.77;82.69;99351.75;5041766;28;20033;-79
2021/03/11 10:29:01;;;;;;;6.28;3.22;;;;;;;9.88;82.09;99334.69;5057322;28;20029;-78
2021/03/11 10:31:27;;;;;;;6.53;3.08;;;;;;;9.85;82.56;99335.88;5048721;28;20095;-84
2021/03/11 10:34:01;;;;;;;5.20;3.47;;;;;;;9.93;82.18;99350.81;5050020;28;20038;-80
2021/03/11 10:36:27;;;;;;;7.00;3.10;;;;;;;10.10;81.55;99351.53;5057750;28;20040;-79
2021/03/11 10:39:08;;;;;;;6.07;2.80;;;;;;;10.16;81.68;99369.31;5048546;28;20037;-82
2021/03/11 10:41:35;;;;;;;4.28;2.55;;;;;;;10.19;80.95;99372.41;5055211;28;20506;-78
2021/03/11 10:44:13;;;;;;;4.82;2.70;;;;;;;10.20;81.30;99379.34;5055484;28;20037;-79
2021/03/11 10:46:39;;;;;;;3.50;2.38;;;;;;;10.18;81.09;99393.75;5053244;28;20040;-79
2021/03/11 10:49:05;;;;;;;6.20;2.60;;;;;;;10.25;80.91;99376.19;5047483;28;20033;-79
2021/03/11 10:51:32;;;;;;;3.78;2.30;;;;;;;10.28;81.13;99360.00;5039187;28;20049;-79
2021/03/11 10:54:00;;;;;;;3.42;2.53;;;;;;;10.39;80.74;99364.84;5044960;28;20029;-78
2021/03/11 10:56:27;;;;;;;2.72;2.05;;;;;;;10.50;79.94;99368.06;5049396;28;20033;-79
2021/03/11 10:59:02;;;;;;;3.90;1.95;;;;;;;10.58;79.97;99360.88;5049106;28;20025;-80
2021/03/11 11:01:28;;;;;;;5.90;1.95;;;;;;;10.56;79.77;99362.88;5045796;28;20124;-77
2021/03/11 11:03:55;;;;;;;3.17;1.80;;;;;;;10.58;79.42;99363.53;5047362;28;20033;-78
2021/03/11 11:06:26;;;;;;;3.40;2.05;;;;;;;10.66;78.74;99362.63;5051102;28;20033;-78
2021/03/11 11:08:51;;;;;;;4.75;1.98;;;;;;;10.72;78.99;99367.16;5049367;28;20042;-78
2021/03/11 11:11:19;;;;;;;3.22;1.70;;;;;;;10.62;79.58;99366.63;5049475;28;20110;-77
2021/03/11 11:13:45;;;;;;;3.33;2.30;;;;;;;10.79;78.88;99357.50;5047581;28;20030;-79
2021/03/11 11:16:11;;;;;;;2.70;1.77;;;;;;;10.87;78.21;99369.00;5043167;28;20044;-78
2021/03/11 11:18:37;;;;;;;3.40;1.77;;;;;;;10.81;78.69;99363.44;5053348;28;20029;-78
2021/03/11 11:21:03;;;;;;;2.33;1.80;;;;;;;10.87;78.44;99358.41;5055093;28;20037;-79
2021/03/11 11:23:29;;;;;;;2.28;1.50;;;;;;;10.93;78.09;99349.75;5053383;28;20037;-80
2021/03/11 11:25:54;;;;;;;3.22;1.80;;;;;;;11.02;77.56;99364.53;5049717;28;20086;-80
2021/03/11 11:28:20;;;;;;;3.05;1.60;;;;;;;10.88;78.29;99368.00;5046632;28;20039;-79
2021/03/11 11:30:45;;;;;;;2.95;1.60;;;;;;;10.83;78.39;99365.91;5051866;28;20048;-79
2021/03/11 11:33:11;;;;;;;3.60;1.55;;;;;;;11.08;76.85;99358.50;5050275;28;20037;-78
2021/03/11 11:35:36;;;;;;;4.03;1.90;;;;;;;11.02;77.35;99360.06;5048067;28;20101;-78
2021/03/11 11:38:02;;;;;;;3.83;1.65;;;;;;;10.97;77.66;99354.50;5043724;28;20037;-79
2021/03/11 11:40:27;;;;;;;2.45;1.42;;;;;;;10.93;77.99;99363.81;5056806;28;20039;-79
2021/03/11 11:42:53;;;;;;;2.47;1.60;;;;;;;11.13;77.10;99342.06;5053533;28;20025;-79